Time;durP1;ratioP1;P1;durP2;ratioP2;P2;SDS_P1;SDS_P2;PMS_P1;PMS_P2;Temp;Humidity;BMP_temperature;BMP_pressure;BME280_temperature;BME280_humidity;BME280_pressure;Samples;Min_cycle;Max_cycle;Signal;HPM_P1;HPM_P2
2023/05/03 00:01:27;;;;;;;3.10;2.90;;;19.30;48.00;;;;;;5066178;28;45381;-68
2023/05/03 00:03:54;;;;;;;3.60;3.17;;;19.30;47.90;;;;;;5066064;28;46412;-69
2023/05/03 00:06:21;;;;;;;6.82;3.15;;;19.40;47.80;;;;;;5065835;28;45670;-71
2023/05/03 00:08:48;;;;;;;7.35;3.05;;;19.30;47.80;;;;;;5066221;28;45294;-70
2023/05/03 00:11:15;;;;;;;6.30;3.05;;;19.30;47.90;;;;;;5066227;28;45352;-69
2023/05/03 00:13:43;;;;;;;4.10;3.45;;;19.30;47.90;;;;;;5063800;28;46807;-67
2023/05/03 00:16:10;;;;;;;3.67;3.00;;;19.30;47.60;;;;;;5065905;28;45322;-71
2023/05/03 00:18:37;;;;;;;8.35;3.50;;;19.30;47.50;;;;;;5066271;28;45711;-70
2023/05/03 00:21:04;;;;;;;5.43;3.22;;;19.30;47.70;;;;;;5066487;28;45344;-70
2023/05/03 00:23:31;;;;;;;4.40;3.88;;;19.30;47.70;;;;;;5062325;28;45460;-67
2023/05/03 00:25:58;;;;;;;4.85;3.78;;;19.30;47.80;;;;;;5065996;28;45361;-71
2023/05/03 00:28:25;;;;;;;4.35;3.25;;;19.30;47.80;;;;;;5068230;28;45370;-69
2023/05/03 00:30:53;;;;;;;7.68;4.13;;;19.30;47.60;;;;;;5065997;28;45420;-66
2023/05/03 00:33:20;;;;;;;10.48;3.90;;;19.30;47.50;;;;;;5065464;28;46683;-67
2023/05/03 00:35:47;;;;;;;3.97;3.67;;;19.30;47.30;;;;;;5065682;28;45420;-68
2023/05/03 00:38:14;;;;;;;7.78;3.30;;;19.30;47.30;;;;;;5066142;28;45313;-69
2023/05/03 00:40:41;;;;;;;11.07;3.47;;;19.30;47.80;;;;;;5063824;28;45348;-69
2023/05/03 00:43:07;;;;;;;7.63;3.45;;;19.30;47.60;;;;;;5065425;28;45484;-71
2023/05/03 00:45:34;;;;;;;8.98;3.88;;;19.30;47.70;;;;;;5065327;28;45498;-71
2023/05/03 00:48:02;;;;;;;7.15;3.85;;;19.30;47.70;;;;;;5065712;28;45254;-66
2023/05/03 00:50:29;;;;;;;12.48;3.85;;;19.30;47.90;;;;;;5065699;28;45413;-69
2023/05/03 00:52:56;;;;;;;8.20;3.70;;;19.30;47.70;;;;;;5065176;28;46641;-69
2023/05/03 00:55:24;;;;;;;4.60;3.78;;;19.30;47.50;;;;;;5061316;28;45490;-68
2023/05/03 00:57:51;;;;;;;3.35;3.03;;;19.30;47.40;;;;;;5065434;28;45308;-67
2023/05/03 01:00:19;;;;;;;15.25;3.78;;;19.30;47.40;;;;;;5065600;28;45388;-64
2023/05/03 01:02:46;;;;;;;9.77;3.55;;;19.20;47.70;;;;;;5063632;28;45625;-66
2023/05/03 01:05:14;;;;;;;5.55;3.35;;;19.20;47.50;;;;;;5064296;28;45440;-67
2023/05/03 01:07:46;;;;;;;6.18;3.53;;;19.20;47.50;;;;;;5065726;28;45452;-68
2023/05/03 01:10:18;;;;;;;4.35;3.00;;;19.10;47.50;;;;;;5065600;28;45539;-67
2023/05/03 01:12:51;;;;;;;9.77;2.90;;;19.10;47.60;;;;;;5065338;28;46398;-67
2023/05/03 01:15:28;;;;;;;3.35;2.95;;;19.10;47.60;;;;;;5065283;28;45262;-66
2023/05/03 01:17:57;;;;;;;4.03;2.95;;;19.00;47.60;;;;;;5065792;28;45262;-67
2023/05/03 01:20:27;;;;;;;5.63;3.17;;;19.00;47.70;;;;;;5065495;28;45452;-67
2023/05/03 01:23:00;;;;;;;3.25;2.95;;;18.90;47.60;;;;;;5065063;28;45473;-66
2023/05/03 01:25:28;;;;;;;3.13;2.83;;;18.90;47.80;;;;;;5065068;28;45300;-68
2023/05/03 01:27:55;;;;;;;3.25;2.70;;;18.80;47.80;;;;;;5064964;28;45349;-67
2023/05/03 01:30:23;;;;;;;3.08;2.63;;;18.80;47.90;;;;;;5065471;28;45463;-67
2023/05/03 01:32:55;;;;;;;2.60;2.40;;;18.70;48.00;;;;;;5064952;28;45416;-67
2023/05/03 01:35:26;;;;;;;4.45;2.80;;;18.70;48.10;;;;;;5065038;28;45339;-66
2023/05/03 01:37:54;;;;;;;3.53;2.83;;;18.60;48.20;;;;;;5065379;28;45252;-67
2023/05/03 01:40:21;;;;;;;3.65;3.08;;;18.50;48.30;;;;;;5065207;28;45422;-66
2023/05/03 01:42:50;;;;;;;3.70;2.63;;;18.50;48.40;;;;;;5064706;28;45422;-66
2023/05/03 01:45:17;;;;;;;4.50;2.75;;;18.40;48.30;;;;;;5065175;28;45222;-67
2023/05/03 01:47:44;;;;;;;3.15;2.85;;;18.40;48.50;;;;;;5065288;28;45270;-66
2023/05/03 01:50:11;;;;;;;3.20;2.60;;;18.30;48.60;;;;;;5065232;28;45402;-67
2023/05/03 01:52:38;;;;;;;5.63;2.95;;;18.30;48.70;;;;;;5064713;28;45511;-66
2023/05/03 01:55:05;;;;;;;2.58;2.38;;;18.30;48.70;;;;;;5064729;28;45427;-67
2023/05/03 01:57:32;;;;;;;3.65;2.65;;;18.20;48.80;;;;;;5065062;28;45331;-66
2023/05/03 02:00:00;;;;;;;2.65;2.45;;;18.20;48.80;;;;;;5065122;28;45262;-66
2023/05/03 02:02:27;;;;;;;2.75;2.53;;;18.10;48.90;;;;;;5064723;28;45407;-67
2023/05/03 02:04:54;;;;;;;4.03;2.85;;;18.20;48.90;;;;;;5067403;28;45333;-67
2023/05/03 02:07:21;;;;;;;3.42;2.55;;;18.10;48.90;;;;;;5068490;28;45300;-67
2023/05/03 02:09:48;;;;;;;2.92;2.53;;;18.10;48.90;;;;;;5068566;28;45444;-67
2023/05/03 02:12:15;;;;;;;3.33;3.03;;;18.10;48.80;;;;;;5068121;28;45342;-67
2023/05/03 02:14:41;;;;;;;4.90;2.78;;;18.10;49.00;;;;;;5067997;28;45341;-67
2023/05/03 02:17:10;;;;;;;3.45;2.80;;;18.00;48.80;;;;;;5068342;28;45357;-67
2023/05/03 02:19:37;;;;;;;2.60;2.40;;;18.00;48.90;;;;;;5068314;28;45313;-67
2023/05/03 02:22:03;;;;;;;2.72;2.53;;;18.00;49.10;;;;;;5067871;28;46388;-67
2023/05/03 02:24:33;;;;;;;2.60;2.35;;;18.00;49.00;;;;;;5068048;28;45284;-67
2023/05/03 02:27:03;;;;;;;2.63;2.42;;;17.90;49.30;;;;;;5068061;28;45343;-67
2023/05/03 02:29:30;;;;;;;4.85;2.40;;;17.90;49.00;;;;;;5068322;28;45477;-67
2023/05/03 02:31:56;;;;;;;2.55;2.20;;;17.80;49.20;;;;;;5067657;28;45315;-67
2023/05/03 02:34:26;;;;;;;4.00;2.70;;;17.90;49.30;;;;;;5067905;28;45231;-67
2023/05/03 02:36:53;;;;;;;3.63;2.58;;;17.90;49.30;;;;;;5068050;28;45326;-67
2023/05/03 02:39:19;;;;;;;2.80;2.60;;;17.90;49.20;;;;;;5068070;28;45345;-67
2023/05/03 02:41:46;;;;;;;2.63;2.42;;;17.90;49.20;;;;;;5067515;28;46423;-67
2023/05/03 02:44:13;;;;;;;2.72;2.53;;;17.80;49.10;;;;;;5067612;28;45307;-67
2023/05/03 02:46:40;;;;;;;2.83;2.63;;;17.80;49.20;;;;;;5067901;28;45139;-67
2023/05/03 02:49:07;;;;;;;2.60;2.40;;;17.80;49.20;;;;;;5067971;28;45250;-67
2023/05/03 02:51:35;;;;;;;3.05;2.75;;;17.70;49.30;;;;;;5067561;28;45342;-67
2023/05/03 02:54:02;;;;;;;3.47;2.42;;;17.70;49.20;;;;;;5067474;28;45462;-67
2023/05/03 02:56:29;;;;;;;2.60;2.40;;;17.70;49.30;;;;;;5067753;28;45351;-67
2023/05/03 02:58:56;;;;;;;2.25;2.10;;;17.70;49.40;;;;;;5067805;28;45479;-67
2023/05/03 03:01:23;;;;;;;2.53;2.20;;;17.60;49.30;;;;;;5067505;28;47781;-67
2023/05/03 03:03:49;;;;;;;2.63;2.42;;;17.60;49.30;;;;;;5067536;28;45280;-67
2023/05/03 03:06:16;;;;;;;2.92;2.63;;;17.60;49.30;;;;;;5067605;28;45190;-67
2023/05/03 03:08:45;;;;;;;3.35;2.45;;;17.60;49.40;;;;;;5067489;28;45458;-67
2023/05/03 03:11:11;;;;;;;2.45;2.25;;;17.60;49.40;;;;;;5067206;28;45530;-67
2023/05/03 03:13:40;;;;;;;3.58;2.60;;;17.60;49.40;;;;;;5067184;28;45265;-67
2023/05/03 03:16:07;;;;;;;2.72;2.53;;;17.50;49.40;;;;;;5066272;28;45336;-67
2023/05/03 03:18:34;;;;;;;2.80;2.60;;;17.50;49.40;;;;;;5067554;28;45469;-67
2023/05/03 03:21:01;;;;;;;2.78;2.38;;;17.50;49.40;;;;;;5067064;28;45389;-67
2023/05/03 03:23:28;;;;;;;2.95;2.42;;;17.50;50.10;;;;;;5066935;28;45252;-67
2023/05/03 03:25:56;;;;;;;3.65;2.60;;;17.50;49.40;;;;;;5067148;28;45332;-67
2023/05/03 03:28:23;;;;;;;3.10;2.70;;;17.50;49.40;;;;;;5067170;28;45293;-67
2023/05/03 03:30:50;;;;;;;2.88;2.58;;;17.50;49.40;;;;;;5066974;28;47340;-67
2023/05/03 03:33:17;;;;;;;2.47;2.20;;;17.50;49.30;;;;;;5067194;28;45415;-67
2023/05/03 03:35:43;;;;;;;3.03;2.25;;;17.40;49.50;;;;;;5067284;28;45290;-67
2023/05/03 03:38:10;;;;;;;3.08;2.38;;;17.40;49.50;;;;;;5067001;28;45630;-67
2023/05/03 03:40:37;;;;;;;3.05;2.40;;;17.40;49.70;;;;;;5066767;28;46708;-67
2023/05/03 03:43:05;;;;;;;2.35;2.15;;;17.40;49.50;;;;;;5066837;28;45383;-67
2023/05/03 03:45:32;;;;;;;2.67;2.30;;;17.40;49.60;;;;;;5066962;28;45331;-67
2023/05/03 03:47:59;;;;;;;3.50;2.42;;;17.40;49.60;;;;;;5067086;28;45305;-67
2023/05/03 03:50:26;;;;;;;3.55;2.53;;;17.30;49.50;;;;;;5066653;28;45302;-67
2023/05/03 03:52:53;;;;;;;2.67;2.33;;;17.30;49.70;;;;;;5066895;28;45342;-67
2023/05/03 03:55:20;;;;;;;3.10;2.80;;;17.30;49.60;;;;;;5066732;28;45501;-67
2023/05/03 03:57:46;;;;;;;2.63;2.42;;;17.30;49.50;;;;;;5066930;28;45275;-67
2023/05/03 04:00:15;;;;;;;2.30;2.10;;;17.30;49.70;;;;;;5066485;28;45329;-67
2023/05/03 04:02:42;;;;;;;3.13;2.72;;;17.30;49.70;;;;;;5066334;28;45455;-68
2023/05/03 04:05:09;;;;;;;2.40;2.20;;;17.30;49.70;;;;;;5066629;28;45462;-67
2023/05/03 04:07:36;;;;;;;2.35;2.15;;;17.30;49.70;;;;;;5066667;28;45317;-67
2023/05/03 04:10:03;;;;;;;3.08;2.63;;;17.30;49.60;;;;;;5066477;28;45360;-67
2023/05/03 04:12:30;;;;;;;2.42;2.20;;;17.30;49.60;;;;;;5066290;28;45346;-67
2023/05/03 04:14:57;;;;;;;2.60;2.40;;;17.20;49.60;;;;;;5066454;28;45338;-67
2023/05/03 04:17:25;;;;;;;3.03;2.78;;;17.20;49.70;;;;;;5066833;28;45346;-67
2023/05/03 04:19:52;;;;;;;2.40;2.00;;;17.20;49.80;;;;;;5066363;28;46951;-67
2023/05/03 04:22:19;;;;;;;2.50;2.30;;;17.20;49.70;;;;;;5066478;28;45386;-67
2023/05/03 04:24:46;;;;;;;3.10;2.60;;;17.20;49.70;;;;;;5066268;28;45237;-67
2023/05/03 04:27:14;;;;;;;3.45;2.50;;;17.20;49.70;;;;;;5065576;28;45502;-67
2023/05/03 04:29:41;;;;;;;2.50;2.30;;;17.10;49.70;;;;;;5065988;28;46752;-67
2023/05/03 04:32:08;;;;;;;2.67;2.47;;;17.10;49.60;;;;;;5065963;28;45267;-67
2023/05/03 04:34:37;;;;;;;2.38;2.08;;;17.10;49.70;;;;;;5066087;28;45304;-67
2023/05/03 04:37:04;;;;;;;2.70;2.50;;;17.10;49.70;;;;;;5066470;28;45340;-67
2023/05/03 04:39:31;;;;;;;3.15;2.33;;;17.10;49.80;;;;;;5065851;28;45464;-67
2023/05/03 04:41:58;;;;;;;2.80;2.60;;;17.10;49.70;;;;;;5065794;28;45385;-67
2023/05/03 04:44:25;;;;;;;2.47;2.28;;;17.10;49.70;;;;;;5065935;28;45250;-67
2023/05/03 04:46:52;;;;;;;2.50;2.30;;;17.10;49.70;;;;;;5066109;28;45310;-67
2023/05/03 04:49:19;;;;;;;6.63;2.60;;;17.10;49.70;;;;;;5065613;28;46681;-67
2023/05/03 04:51:47;;;;;;;2.50;2.15;;;17.00;49.70;;;;;;5065683;28;45479;-67
2023/05/03 04:54:14;;;;;;;2.35;2.13;;;17.00;49.70;;;;;;5065908;28;45290;-67
2023/05/03 04:56:41;;;;;;;2.25;2.00;;;17.00;49.70;;;;;;5065927;28;45269;-67
2023/05/03 04:59:08;;;;;;;2.13;1.95;;;17.00;49.80;;;;;;5065474;28;45485;-67
2023/05/03 05:01:34;;;;;;;2.42;2.22;;;17.00;49.70;;;;;;5065462;28;45292;-67
2023/05/03 05:04:01;;;;;;;2.50;2.28;;;17.00;49.70;;;;;;5065591;28;45372;-68
2023/05/03 05:06:28;;;;;;;2.55;2.20;;;17.00;49.70;;;;;;5066042;28;45406;-67
2023/05/03 05:08:56;;;;;;;3.33;2.20;;;17.00;49.70;;;;;;5065530;28;46431;-67
2023/05/03 05:11:23;;;;;;;3.15;2.15;;;17.00;49.70;;;;;;5065291;28;45396;-67
2023/05/03 05:13:51;;;;;;;3.80;2.05;;;17.00;49.70;;;;;;5065465;28;45336;-67
2023/05/03 05:16:18;;;;;;;4.07;2.60;;;17.00;49.70;;;;;;5065968;28;45309;-67
2023/05/03 05:18:45;;;;;;;2.15;1.95;;;17.00;49.70;;;;;;5065427;28;46315;-67
2023/05/03 05:21:13;;;;;;;3.72;2.22;;;17.00;49.70;;;;;;5065347;28;45262;-67
2023/05/03 05:23:40;;;;;;;2.38;2.17;;;17.00;49.70;;;;;;5065370;28;45225;-67
2023/05/03 05:26:08;;;;;;;2.50;2.30;;;17.00;49.70;;;;;;5065535;28;45389;-67
2023/05/03 05:28:35;;;;;;;2.70;2.40;;;17.00;49.70;;;;;;5065260;28;47377;-67
2023/05/03 05:31:01;;;;;;;2.78;2.28;;;17.00;49.70;;;;;;5065220;28;45306;-67
2023/05/03 05:33:28;;;;;;;2.58;2.38;;;17.00;49.70;;;;;;5065286;28;45435;-67
2023/05/03 05:35:55;;;;;;;2.50;2.30;;;17.00;49.70;;;;;;5065296;28;45439;-67
2023/05/03 05:38:22;;;;;;;2.55;2.35;;;17.00;49.70;;;;;;5065479;28;45531;-67
2023/05/03 05:40:49;;;;;;;2.50;2.30;;;17.00;49.70;;;;;;5069054;28;45410;-70
2023/05/03 05:43:17;;;;;;;4.45;3.28;;;17.00;49.70;;;;;;5068968;28;45294;-69
2023/05/03 05:45:44;;;;;;;5.53;3.13;;;17.00;49.70;;;;;;5068947;28;45464;-70
2023/05/03 05:48:11;;;;;;;7.97;3.20;;;16.90;49.70;;;;;;5068622;28;45563;-70
2023/05/03 05:50:38;;;;;;;2.75;2.55;;;16.90;49.70;;;;;;5068682;28;46340;-70
2023/05/03 05:53:05;;;;;;;3.30;2.67;;;16.90;49.60;;;;;;5068648;28;45323;-69
2023/05/03 05:55:31;;;;;;;3.85;2.55;;;16.90;49.70;;;;;;5068550;28;45324;-69
2023/05/03 05:57:58;;;;;;;4.75;2.67;;;16.90;49.60;;;;;;5068315;28;45529;-70
2023/05/03 06:00:26;;;;;;;5.30;2.38;;;16.90;49.60;;;;;;5068564;28;45297;-70
2023/05/03 06:02:53;;;;;;;3.53;2.47;;;16.90;49.70;;;;;;5068516;28;45363;-70
2023/05/03 06:05:20;;;;;;;3.92;2.72;;;16.90;49.70;;;;;;5068702;28;45357;-70
2023/05/03 06:07:52;;;;;;;3.13;2.45;;;16.90;49.60;;;;;;5068224;28;46443;-70
2023/05/03 06:10:19;;;;;;;3.00;2.70;;;16.90;49.60;;;;;;5068352;28;45211;-70
2023/05/03 06:12:46;;;;;;;3.25;2.50;;;16.90;49.60;;;;;;5068549;28;45357;-70
2023/05/03 06:15:13;;;;;;;3.75;2.55;;;16.90;49.70;;;;;;5068784;28;45297;-70
2023/05/03 06:17:41;;;;;;;2.55;2.22;;;16.90;49.70;;;;;;5068356;28;47354;-70
2023/05/03 06:20:10;;;;;;;2.65;2.10;;;16.90;49.70;;;;;;5068477;28;45376;-68
2023/05/03 06:22:37;;;;;;;4.63;3.42;;;16.90;49.70;;;;;;5068123;28;45321;-68
2023/05/03 06:25:06;;;;;;;4.85;3.90;;;16.90;50.20;;;;;;5068807;28;45389;-68
2023/05/03 06:27:33;;;;;;;6.65;4.53;;;16.80;51.10;;;;;;5067767;28;46397;-68
2023/05/03 06:29:59;;;;;;;5.55;4.40;;;16.60;51.70;;;;;;5067854;28;45281;-68
2023/05/03 06:32:26;;;;;;;7.32;4.50;;;16.50;52.40;;;;;;5068284;28;45328;-68
2023/05/03 06:34:55;;;;;;;6.13;4.68;;;16.50;52.60;;;;;;5068328;28;45372;-68
2023/05/03 06:37:23;;;;;;;6.72;4.72;;;16.40;53.10;;;;;;5067916;28;47904;-68
2023/05/03 06:39:50;;;;;;;5.10;3.80;;;16.30;53.60;;;;;;5068148;28;45384;-68
2023/05/03 06:42:17;;;;;;;8.50;4.65;;;16.30;53.80;;;;;;5068311;28;45250;-68
2023/05/03 06:44:44;;;;;;;7.60;4.63;;;16.20;54.10;;;;;;5068465;28;45262;-68
2023/05/03 06:47:11;;;;;;;5.35;4.00;;;16.20;54.20;;;;;;5068089;28;46695;-68
2023/05/03 06:49:38;;;;;;;4.75;4.03;;;16.20;53.80;;;;;;5067524;28;45356;-68
2023/05/03 06:52:06;;;;;;;5.07;3.92;;;16.30;53.60;;;;;;5068189;28;45285;-68
2023/05/03 06:54:33;;;;;;;3.75;3.35;;;16.30;53.30;;;;;;5068418;28;45455;-68
2023/05/03 06:57:00;;;;;;;4.30;3.22;;;16.40;53.00;;;;;;5067627;28;45481;-68
2023/05/03 06:59:27;;;;;;;5.32;3.28;;;16.50;52.80;;;;;;5067862;28;45297;-68
2023/05/03 07:01:54;;;;;;;4.18;3.20;;;16.50;52.50;;;;;;5067837;28;45341;-67
2023/05/03 07:04:21;;;;;;;2.92;2.70;;;16.60;52.40;;;;;;5067982;28;45296;-67
2023/05/03 07:06:53;;;;;;;5.68;2.97;;;16.60;52.20;;;;;;5067702;28;46672;-68
2023/05/03 07:09:21;;;;;;;9.65;3.05;;;16.60;52.00;;;;;;5067814;28;45277;-68
2023/05/03 07:11:50;;;;;;;3.25;2.55;;;16.70;51.90;;;;;;5067637;28;45263;-67
2023/05/03 07:14:18;;;;;;;3.28;2.45;;;16.70;51.80;;;;;;5067999;28;45382;-68
2023/05/03 07:16:44;;;;;;;2.78;2.58;;;16.70;51.70;;;;;;5067552;28;46708;-67
2023/05/03 07:19:11;;;;;;;7.72;2.92;;;16.80;51.60;;;;;;5067539;28;45230;-68
2023/05/03 07:21:38;;;;;;;2.92;2.60;;;16.80;51.60;;;;;;5067279;28;45349;-67
2023/05/03 07:24:06;;;;;;;3.67;2.58;;;16.80;51.50;;;;;;5067996;28;45570;-68
2023/05/03 07:26:35;;;;;;;2.50;2.30;;;16.90;51.50;;;;;;5067282;28;45494;-68
2023/05/03 07:29:01;;;;;;;3.78;2.40;;;16.90;51.40;;;;;;5067264;28;45326;-67
2023/05/03 07:31:28;;;;;;;4.00;2.80;;;16.90;51.30;;;;;;5067562;28;45214;-68
2023/05/03 07:33:55;;;;;;;2.97;2.65;;;16.90;51.30;;;;;;5067647;28;45294;-68
2023/05/03 07:36:22;;;;;;;3.13;2.13;;;16.90;51.20;;;;;;5067056;28;47323;-68
2023/05/03 07:38:49;;;;;;;3.10;2.55;;;17.00;51.20;;;;;;5067416;28;45546;-68
2023/05/03 07:41:17;;;;;;;2.20;2.00;;;17.00;51.10;;;;;;5067084;28;45408;-67
2023/05/03 07:43:45;;;;;;;2.33;2.13;;;17.00;51.10;;;;;;5067239;28;45245;-67
2023/05/03 07:46:12;;;;;;;2.15;1.83;;;17.00;51.00;;;;;;5067107;28;46410;-68
2023/05/03 07:48:38;;;;;;;4.10;2.30;;;17.00;51.00;;;;;;5067029;28;45385;-68
2023/05/03 07:51:05;;;;;;;4.68;2.38;;;17.10;51.00;;;;;;5067284;28;45349;-68
2023/05/03 07:53:34;;;;;;;2.17;1.92;;;17.10;51.00;;;;;;5067487;28;45118;-68
2023/05/03 07:56:00;;;;;;;2.97;2.58;;;17.10;51.00;;;;;;5067315;28;45522;-67
2023/05/03 07:58:27;;;;;;;2.83;2.10;;;17.10;51.00;;;;;;5067602;28;45439;-68
2023/05/03 08:00:56;;;;;;;2.70;2.47;;;17.10;51.00;;;;;;5063971;28;45359;-67
2023/05/03 08:03:22;;;;;;;2.90;2.30;;;17.10;50.90;;;;;;5067165;28;45328;-67
2023/05/03 08:05:49;;;;;;;3.35;2.05;;;17.20;50.90;;;;;;5066958;28;46664;-68
2023/05/03 08:08:17;;;;;;;3.67;2.20;;;17.20;50.90;;;;;;5066939;28;45308;-67
2023/05/03 08:10:44;;;;;;;2.28;2.08;;;17.20;50.90;;;;;;5067191;28;45400;-67
2023/05/03 08:13:11;;;;;;;4.95;2.30;;;17.20;50.90;;;;;;5067724;28;45369;-69
2023/05/03 08:15:38;;;;;;;3.53;1.98;;;17.20;50.90;;;;;;5066720;28;45307;-67
2023/05/03 08:18:07;;;;;;;3.42;2.55;;;17.20;51.00;;;;;;5066931;28;45308;-66
2023/05/03 08:20:35;;;;;;;3.67;2.20;;;17.20;50.90;;;;;;5067255;28;45345;-67
2023/05/03 08:23:02;;;;;;;2.40;2.20;;;17.30;50.90;;;;;;5067221;28;45643;-68
2023/05/03 08:25:29;;;;;;;4.35;2.03;;;17.30;50.80;;;;;;5066615;28;45497;-67
2023/05/03 08:27:56;;;;;;;3.17;2.25;;;17.30;50.80;;;;;;5066775;28;45427;-68
2023/05/03 08:30:24;;;;;;;2.63;2.42;;;17.30;50.80;;;;;;5067107;28;45341;-68
2023/05/03 08:32:51;;;;;;;3.03;2.40;;;17.40;50.60;;;;;;5067041;28;45350;-69
2023/05/03 08:35:19;;;;;;;2.20;2.00;;;17.40;50.70;;;;;;5066549;28;46574;-67
2023/05/03 08:37:46;;;;;;;2.35;1.98;;;17.40;50.60;;;;;;5066482;28;45461;-67
2023/05/03 08:40:15;;;;;;;3.80;2.05;;;17.40;50.50;;;;;;5066413;28;45429;-68
2023/05/03 08:42:42;;;;;;;2.92;2.10;;;17.40;50.50;;;;;;5066261;28;45638;-68
2023/05/03 08:45:14;;;;;;;3.42;2.33;;;17.50;50.60;;;;;;5066073;28;45358;-68
2023/05/03 08:47:43;;;;;;;4.38;2.13;;;17.50;50.60;;;;;;5065972;28;45336;-68
2023/05/03 08:50:10;;;;;;;2.42;2.20;;;17.50;50.50;;;;;;5066002;28;45344;-68
2023/05/03 08:52:39;;;;;;;2.92;2.33;;;17.50;50.50;;;;;;5066084;28;45199;-68
2023/05/03 08:55:07;;;;;;;2.47;2.15;;;17.60;50.50;;;;;;5065822;28;46465;-68
2023/05/03 08:57:34;;;;;;;2.10;2.00;;;17.60;50.50;;;;;;5065767;28;45187;-68
2023/05/03 09:00:03;;;;;;;3.38;2.13;;;17.60;50.50;;;;;;5065907;28;45407;-68
2023/05/03 09:02:33;;;;;;;2.72;2.13;;;17.60;50.50;;;;;;5065976;28;45417;-68
2023/05/03 09:05:00;;;;;;;4.18;2.30;;;17.70;50.50;;;;;;5065484;28;46668;-68
2023/05/03 09:07:27;;;;;;;2.67;2.20;;;17.70;50.60;;;;;;5065759;28;45372;-68
2023/05/03 09:09:56;;;;;;;3.70;2.08;;;17.80;50.60;;;;;;5065709;28;45360;-68
2023/05/03 09:12:34;;;;;;;2.20;2.00;;;17.80;50.70;;;;;;5065793;28;45630;-68
2023/05/03 09:15:01;;;;;;;2.55;1.98;;;17.80;50.70;;;;;;5065115;28;46485;-68
2023/05/03 09:17:28;;;;;;;3.47;2.20;;;17.80;50.70;;;;;;5065535;28;45302;-67
2023/05/03 09:19:56;;;;;;;4.18;2.33;;;17.90;50.70;;;;;;5065794;28;45515;-68
2023/05/03 09:22:23;;;;;;;2.55;2.15;;;17.90;50.70;;;;;;5065770;28;45273;-68
2023/05/03 09:24:55;;;;;;;2.25;2.00;;;17.90;50.70;;;;;;5065537;28;47671;-67
2023/05/03 09:27:22;;;;;;;2.58;2.03;;;18.00;50.70;;;;;;5065261;28;45278;-68
2023/05/03 09:29:50;;;;;;;2.40;2.10;;;18.00;50.70;;;;;;5062498;28;45349;-67
2023/05/03 09:32:17;;;;;;;2.47;2.13;;;18.00;50.70;;;;;;5065348;28;45480;-68
2023/05/03 09:34:44;;;;;;;4.82;2.08;;;18.00;50.70;;;;;;5065257;28;46391;-68
2023/05/03 09:37:12;;;;;;;3.50;2.22;;;18.10;50.70;;;;;;5065148;28;45277;-68
2023/05/03 09:39:40;;;;;;;1.98;1.77;;;18.10;50.70;;;;;;5065366;28;45385;-68
2023/05/03 09:42:13;;;;;;;2.22;2.03;;;18.10;50.70;;;;;;5065389;28;45308;-68
2023/05/03 09:44:43;;;;;;;2.53;2.25;;;18.20;50.90;;;;;;5065071;28;46380;-68
2023/05/03 09:47:10;;;;;;;5.80;2.38;;;18.20;50.90;;;;;;5065009;28;45340;-68
2023/05/03 09:49:37;;;;;;;2.65;1.92;;;18.20;50.90;;;;;;5065245;28;45195;-67
2023/05/03 09:52:05;;;;;;;3.55;2.30;;;18.30;50.90;;;;;;5065182;28;45250;-67
2023/05/03 09:54:32;;;;;;;4.35;2.15;;;18.30;50.90;;;;;;5064861;28;45400;-67
2023/05/03 09:56:59;;;;;;;5.28;2.13;;;18.30;51.00;;;;;;5064995;28;45303;-68
2023/05/03 09:59:27;;;;;;;3.28;2.20;;;18.30;51.00;;;;;;5065077;28;45414;-68
2023/05/03 10:01:56;;;;;;;3.33;2.00;;;18.40;51.00;;;;;;5065296;28;45297;-67
2023/05/03 10:04:23;;;;;;;2.20;2.00;;;18.40;51.00;;;;;;5065122;28;46420;-67
2023/05/03 10:06:50;;;;;;;2.50;2.30;;;18.50;51.20;;;;;;5065005;28;45337;-67
2023/05/03 10:09:19;;;;;;;2.20;2.00;;;18.50;51.00;;;;;;5065371;28;45426;-67
2023/05/03 10:11:48;;;;;;;2.40;2.20;;;18.50;51.00;;;;;;5065328;28;45331;-68
2023/05/03 10:14:14;;;;;;;2.20;1.85;;;18.50;51.00;;;;;;5064896;28;45666;-67
2023/05/03 10:16:45;;;;;;;2.30;2.10;;;18.60;51.00;;;;;;5064890;28;45306;-67
2023/05/03 10:19:14;;;;;;;2.33;2.15;;;18.60;51.10;;;;;;5065408;28;45406;-67
2023/05/03 10:21:51;;;;;;;2.28;2.10;;;18.70;51.10;;;;;;5065014;28;45429;-67
2023/05/03 10:24:18;;;;;;;2.10;1.90;;;18.70;51.70;;;;;;5065140;28;45354;-68
2023/05/03 10:26:46;;;;;;;2.10;1.92;;;18.70;51.10;;;;;;5068158;28;45346;-68
2023/05/03 10:29:48;;;;;;;3.80;2.25;;;18.80;51.20;;;;;;5068407;28;45410;-68
2023/05/03 10:32:32;;;;;;;2.85;2.33;;;18.80;51.20;;;;;;5068633;28;45349;-68
2023/05/03 10:35:04;;;;;;;2.10;1.92;;;18.80;51.10;;;;;;5068079;28;45244;-68
2023/05/03 10:37:33;;;;;;;3.80;2.03;;;18.90;51.20;;;;;;5068182;28;45478;-67
2023/05/03 10:40:06;;;;;;;2.45;2.25;;;18.90;51.20;;;;;;5068267;28;45343;-67
2023/05/03 10:42:33;;;;;;;2.65;2.25;;;19.00;51.10;;;;;;5068304;28;45350;-67
2023/05/03 10:45:00;;;;;;;2.40;2.20;;;19.00;51.00;;;;;;5067927;28;46945;-68
2023/05/03 10:47:29;;;;;;;2.50;2.15;;;19.00;50.90;;;;;;5068194;28;45333;-67
2023/05/03 10:50:29;;;;;;;2.42;2.05;;;19.10;50.80;;;;;;5068042;28;45291;-67
2023/05/03 10:52:56;;;;;;;1.98;1.88;;;19.10;50.80;;;;;;5056026;28;45310;-68
2023/05/03 10:55:23;;;;;;;2.25;2.05;;;19.20;50.80;;;;;;5067937;28;46345;-68
2023/05/03 10:57:53;;;;;;;3.55;2.17;;;19.30;50.70;;;;;;5067794;28;45290;-67
2023/05/03 11:00:23;;;;;;;3.53;1.88;;;19.30;50.60;;;;;;5067715;28;45361;-68
2023/05/03 11:03:08;;;;;;;2.55;1.83;;;19.40;50.50;;;;;;5068175;28;45291;-67
2023/05/03 11:05:35;;;;;;;2.25;2.10;;;19.40;50.50;;;;;;5067447;28;45332;-67
2023/05/03 11:08:09;;;;;;;3.28;2.17;;;19.50;50.50;;;;;;5067605;28;45345;-67
2023/05/03 11:10:36;;;;;;;2.35;2.15;;;19.60;50.40;;;;;;5067878;28;45258;-67
2023/05/03 11:13:03;;;;;;;2.75;1.88;;;19.60;50.30;;;;;;5067894;28;45338;-67
2023/05/03 11:15:31;;;;;;;1.90;1.80;;;19.70;50.30;;;;;;5067358;28;46693;-66
2023/05/03 11:17:59;;;;;;;2.22;1.90;;;19.70;50.10;;;;;;5067537;28;45321;-67
2023/05/03 11:20:26;;;;;;;2.03;1.80;;;19.80;50.30;;;;;;5067577;28;45344;-67
2023/05/03 11:22:52;;;;;;;2.85;1.90;;;19.90;50.10;;;;;;5067388;28;45305;-66
2023/05/03 11:25:19;;;;;;;2.08;1.80;;;20.00;50.00;;;;;;5067410;28;46665;-66
2023/05/03 11:27:46;;;;;;;2.78;2.33;;;20.00;49.90;;;;;;5066992;28;45270;-67
2023/05/03 11:30:14;;;;;;;2.03;1.92;;;20.10;49.80;;;;;;5067136;28;45405;-67
2023/05/03 11:32:41;;;;;;;2.03;1.92;;;20.20;49.70;;;;;;5067258;28;45436;-68
2023/05/03 11:35:10;;;;;;;1.80;1.70;;;20.20;49.60;;;;;;5066959;28;46739;-68
2023/05/03 11:37:37;;;;;;;1.83;1.73;;;20.30;49.50;;;;;;5065617;28;45355;-68
2023/05/03 11:40:05;;;;;;;1.92;1.83;;;20.40;49.60;;;;;;5067246;28;45407;-68
2023/05/03 11:42:32;;;;;;;1.83;1.70;;;20.50;50.10;;;;;;5067192;28;45646;-68
2023/05/03 11:45:00;;;;;;;1.67;1.58;;;20.50;50.10;;;;;;5066704;28;45304;-68
2023/05/03 11:47:27;;;;;;;2.00;1.90;;;20.60;49.40;;;;;;5066906;28;45303;-66
2023/05/03 11:49:54;;;;;;;1.95;1.77;;;20.60;49.40;;;;;;5066997;28;45484;-68
2023/05/03 11:52:23;;;;;;;1.63;1.52;;;20.60;49.40;;;;;;5067008;28;45358;-67
2023/05/03 11:54:50;;;;;;;2.00;1.83;;;20.70;49.40;;;;;;5066727;28;46819;-67
2023/05/03 11:57:17;;;;;;;2.20;2.00;;;20.70;49.20;;;;;;5066851;28;45282;-68
2023/05/03 11:59:44;;;;;;;2.22;1.98;;;20.80;49.10;;;;;;5066962;28;45252;-68
2023/05/03 12:02:12;;;;;;;2.13;1.92;;;20.90;49.10;;;;;;5066830;28;45475;-68
2023/05/03 12:04:40;;;;;;;1.83;1.65;;;21.00;49.00;;;;;;5066529;28;46579;-68
2023/05/03 12:07:07;;;;;;;1.98;1.88;;;21.00;48.90;;;;;;5066566;28;45299;-68
2023/05/03 12:09:36;;;;;;;2.35;1.80;;;21.10;48.80;;;;;;5066743;28;45340;-68
2023/05/03 12:12:03;;;;;;;1.90;1.80;;;21.20;48.80;;;;;;5066801;28;45529;-68
2023/05/03 12:14:45;;;;;;;1.70;1.60;;;21.30;48.70;;;;;;5066541;28;46861;-68
2023/05/03 12:17:12;;;;;;;2.78;1.70;;;21.30;48.50;;;;;;5065129;28;45282;-68
2023/05/03 12:19:39;;;;;;;2.17;1.98;;;21.40;48.00;;;;;;5066453;28;45320;-68
2023/05/03 12:22:06;;;;;;;2.15;1.67;;;21.50;48.20;;;;;;5066986;28;45251;-67
2023/05/03 12:24:32;;;;;;;1.75;1.65;;;21.50;48.20;;;;;;5064198;28;45513;-68
2023/05/03 12:27:01;;;;;;;1.60;1.50;;;21.60;48.10;;;;;;5065938;28;45441;-68
2023/05/03 12:29:30;;;;;;;1.73;1.63;;;21.70;48.60;;;;;;5066382;28;45405;-68
2023/05/03 12:32:01;;;;;;;1.98;1.77;;;21.70;47.90;;;;;;5066351;28;44920;-68
2023/05/03 12:34:28;;;;;;;1.70;1.60;;;21.80;47.90;;;;;;5066064;28;45319;-68
2023/05/03 12:36:58;;;;;;;1.67;1.58;;;21.80;47.80;;;;;;5066168;28;45337;-68
2023/05/03 12:39:25;;;;;;;1.67;1.58;;;21.90;47.80;;;;;;5066360;28;45426;-66
2023/05/03 12:41:52;;;;;;;2.05;1.70;;;22.00;47.70;;;;;;5066295;28;45421;-66
2023/05/03 12:44:20;;;;;;;2.38;1.88;;;22.00;47.50;;;;;;5065735;28;46419;-66
2023/05/03 12:46:48;;;;;;;2.33;1.70;;;22.10;47.20;;;;;;5066356;28;45343;-66
2023/05/03 12:49:15;;;;;;;1.80;1.70;;;22.20;47.40;;;;;;5065753;28;45411;-66